Time;durP1;ratioP1;P1;durP2;ratioP2;P2;SDS_P1;SDS_P2;PMS_P1;PMS_P2;Temp;Humidity;BMP_temperature;BMP_pressure;BME280_temperature;BME280_humidity;BME280_pressure;Samples;Min_cycle;Max_cycle;Signal;HPM_P1;HPM_P2
2022/08/25 00:01:25;;;;;;;8.32;6.72;;;24.80;99.90;;;;;;6212472;23;20031;-77
2022/08/25 00:03:51;;;;;;;7.80;7.00;;;24.80;99.90;;;;;;6212297;23;20017;-77
2022/08/25 00:06:18;;;;;;;8.93;6.88;;;24.80;99.90;;;;;;6214295;23;19996;-77
2022/08/25 00:08:44;;;;;;;11.15;7.20;;;24.80;99.90;;;;;;6213440;23;20011;-76
2022/08/25 00:11:13;;;;;;;7.60;6.80;;;24.80;99.90;;;;;;6212648;23;20384;-76
2022/08/25 00:13:42;;;;;;;9.20;6.35;;;24.80;99.90;;;;;;6213497;23;20005;-76
2022/08/25 00:16:10;;;;;;;8.55;7.00;;;24.70;99.90;;;;;;6212653;23;20009;-76
2022/08/25 00:18:38;;;;;;;7.38;6.53;;;24.80;99.90;;;;;;6213417;23;20466;-77
2022/08/25 00:21:05;;;;;;;14.25;6.80;;;24.80;99.90;;;;;;6213733;23;19997;-77
2022/08/25 00:23:31;;;;;;;15.13;7.25;;;24.80;99.90;;;;;;6212218;23;20036;-77
2022/08/25 00:25:56;;;;;;;9.82;7.70;;;24.80;99.90;;;;;;6214107;23;20027;-76
2022/08/25 00:28:22;;;;;;;9.93;7.15;;;24.80;99.90;;;;;;6213266;23;20436;-77
2022/08/25 00:30:49;;;;;;;7.50;6.72;;;24.80;99.90;;;;;;6214093;23;20311;-76
2022/08/25 00:33:15;;;;;;;8.73;6.57;;;24.80;99.90;;;;;;6211883;23;20015;-76
2022/08/25 00:35:41;;;;;;;7.97;6.90;;;24.80;99.90;;;;;;6213924;23;20020;-76
2022/08/25 00:38:09;;;;;;;8.93;7.03;;;24.80;99.90;;;;;;6213429;23;20028;-76
2022/08/25 00:40:38;;;;;;;8.73;6.82;;;24.80;99.90;;;;;;6213942;23;20149;-76
2022/08/25 00:43:05;;;;;;;11.13;7.38;;;24.80;99.90;;;;;;6212868;23;20012;-76
2022/08/25 00:45:31;;;;;;;11.75;7.32;;;24.80;99.90;;;;;;6213565;23;20001;-76
2022/08/25 00:47:58;;;;;;;7.35;6.68;;;24.80;99.90;;;;;;6213305;23;20008;-76
2022/08/25 00:50:24;;;;;;;7.40;6.57;;;24.80;99.90;;;;;;6213832;23;20001;-76
2022/08/25 00:52:52;;;;;;;9.20;7.20;;;24.80;99.90;;;;;;6213055;23;20035;-76
2022/08/25 00:55:29;;;;;;;7.25;6.53;;;24.80;99.90;;;;;;6213578;23;20009;-76
2022/08/25 00:57:57;;;;;;;10.95;6.97;;;24.80;99.90;;;;;;6213027;23;20004;-77
2022/08/25 01:00:43;;;;;;;9.25;7.47;;;24.80;99.90;;;;;;6211940;23;20004;-77
2022/08/25 01:03:10;;;;;;;7.35;6.57;;;24.80;99.90;;;;;;6211469;23;20341;-77
2022/08/25 01:05:37;;;;;;;9.00;6.82;;;24.70;99.90;;;;;;6213701;23;20003;-76
2022/08/25 01:08:05;;;;;;;9.13;7.20;;;24.70;99.90;;;;;;6213401;23;20083;-76
2022/08/25 01:10:34;;;;;;;8.73;7.15;;;24.60;99.90;;;;;;6213667;23;20031;-77
2022/08/25 01:13:34;;;;;;;13.70;7.55;;;24.60;99.90;;;;;;6212782;23;20075;-77
2022/08/25 01:16:01;;;;;;;9.70;7.05;;;24.60;99.90;;;;;;6191342;23;20062;-77
2022/08/25 01:18:27;;;;;;;8.13;7.30;;;24.60;99.90;;;;;;6212692;23;20016;-77
2022/08/25 01:20:55;;;;;;;8.38;6.88;;;24.60;99.90;;;;;;6213465;23;20421;-77
2022/08/25 01:23:21;;;;;;;7.70;6.90;;;24.60;99.90;;;;;;6211137;23;20055;-77
2022/08/25 01:26:06;;;;;;;9.32;7.47;;;24.60;99.90;;;;;;6211826;23;20007;-77
2022/08/25 01:28:33;;;;;;;10.45;6.80;;;24.60;99.90;;;;;;6210935;23;20012;-77
2022/08/25 01:30:59;;;;;;;9.23;7.57;;;24.60;99.90;;;;;;6213545;23;20007;-77
2022/08/25 01:33:25;;;;;;;10.57;7.40;;;24.60;99.90;;;;;;6212881;23;20008;-77
2022/08/25 01:35:50;;;;;;;7.75;6.97;;;24.60;99.90;;;;;;6213387;23;20224;-77
2022/08/25 01:38:17;;;;;;;8.68;7.25;;;24.60;99.90;;;;;;6213153;23;19997;-77
2022/08/25 01:40:43;;;;;;;11.15;7.68;;;24.60;99.90;;;;;;6211598;23;20015;-77
2022/08/25 01:43:16;;;;;;;8.60;7.57;;;24.60;99.90;;;;;;6210830;23;20432;-77
2022/08/25 01:45:46;;;;;;;8.98;7.45;;;24.60;99.90;;;;;;6213130;23;20001;-77
2022/08/25 01:48:12;;;;;;;10.20;8.00;;;24.50;99.90;;;;;;6212788;23;19999;-77
2022/08/25 01:50:39;;;;;;;9.18;7.50;;;24.50;99.90;;;;;;6211459;23;20001;-77
2022/08/25 01:53:28;;;;;;;8.25;7.07;;;24.50;99.90;;;;;;6212931;23;20004;-76
2022/08/25 01:56:04;;;;;;;10.55;7.28;;;24.50;99.90;;;;;;6212719;23;20079;-76
2022/08/25 01:58:36;;;;;;;7.72;6.90;;;24.50;99.90;;;;;;6210820;23;20004;-76
2022/08/25 02:01:05;;;;;;;8.98;7.32;;;24.50;99.90;;;;;;6213006;23;20005;-76
2022/08/25 02:03:35;;;;;;;9.63;7.20;;;24.60;99.90;;;;;;6212523;23;20059;-76
2022/08/25 02:06:00;;;;;;;8.05;7.25;;;24.60;99.90;;;;;;6213215;23;20005;-76
2022/08/25 02:08:26;;;;;;;10.40;7.85;;;24.50;99.90;;;;;;6210765;23;20444;-77
2022/08/25 02:10:54;;;;;;;10.07;7.47;;;24.50;99.90;;;;;;6211446;23;20004;-77
2022/08/25 02:13:21;;;;;;;11.60;7.15;;;24.50;99.90;;;;;;6212267;23;20051;-76
2022/08/25 02:15:50;;;;;;;8.32;7.43;;;24.50;99.90;;;;;;6212715;23;20000;-76
2022/08/25 02:18:17;;;;;;;9.63;7.53;;;24.60;99.90;;;;;;6212234;23;20452;-76
2022/08/25 02:20:43;;;;;;;10.60;7.95;;;24.50;99.90;;;;;;6213108;23;20001;-76
2022/08/25 02:23:10;;;;;;;9.07;8.18;;;24.50;99.90;;;;;;6212954;23;20009;-76
2022/08/25 02:25:38;;;;;;;10.52;7.47;;;24.60;99.90;;;;;;6213217;23;20072;-76
2022/08/25 02:28:05;;;;;;;8.48;7.60;;;24.50;99.90;;;;;;6210365;23;20102;-77
2022/08/25 02:30:31;;;;;;;10.98;7.75;;;24.60;99.90;;;;;;6212887;23;20004;-77
2022/08/25 02:32:57;;;;;;;11.38;8.07;;;24.60;99.90;;;;;;6212620;23;20000;-76
2022/08/25 02:35:23;;;;;;;8.30;7.50;;;24.60;99.90;;;;;;6211423;23;20012;-76
2022/08/25 02:37:52;;;;;;;10.27;7.45;;;24.60;99.90;;;;;;6212162;23;20349;-76
2022/08/25 02:40:20;;;;;;;9.75;7.65;;;24.60;99.90;;;;;;6212783;23;20007;-76
2022/08/25 02:42:46;;;;;;;10.80;7.47;;;24.60;99.90;;;;;;6212172;23;20012;-76
2022/08/25 02:45:12;;;;;;;9.48;8.10;;;24.60;99.90;;;;;;6212789;23;20051;-76
2022/08/25 02:47:40;;;;;;;9.65;7.72;;;24.60;99.90;;;;;;6212364;23;20187;-76
2022/08/25 02:50:06;;;;;;;9.80;7.53;;;24.50;99.90;;;;;;6212818;23;20003;-76
2022/08/25 02:52:32;;;;;;;8.35;7.43;;;24.60;99.90;;;;;;6212332;23;20443;-76
2022/08/25 02:54:57;;;;;;;11.10;7.93;;;24.50;99.90;;;;;;6211150;23;20001;-76
2022/08/25 02:57:23;;;;;;;8.38;7.53;;;24.50;99.90;;;;;;6212573;23;20001;-76
2022/08/25 02:59:50;;;;;;;8.30;7.10;;;24.60;99.90;;;;;;6212314;23;20000;-76
2022/08/25 03:02:16;;;;;;;8.82;7.93;;;24.60;99.90;;;;;;6212285;23;20013;-76
2022/08/25 03:04:42;;;;;;;12.23;8.45;;;24.60;99.90;;;;;;6212760;23;20007;-76
2022/08/25 03:07:09;;;;;;;11.88;7.90;;;24.50;99.90;;;;;;6212778;23;20030;-76
2022/08/25 03:09:36;;;;;;;9.07;7.53;;;24.50;99.90;;;;;;6214618;23;20004;-76
2022/08/25 03:12:02;;;;;;;9.85;8.10;;;24.50;99.90;;;;;;6214429;23;20012;-76
2022/08/25 03:14:29;;;;;;;9.77;7.95;;;24.50;99.90;;;;;;6214189;23;20421;-76
2022/08/25 03:16:55;;;;;;;10.02;8.02;;;24.50;99.90;;;;;;6214079;23;20013;-76
2022/08/25 03:19:21;;;;;;;10.75;7.95;;;24.50;99.90;;;;;;6214238;23;20496;-76
2022/08/25 03:21:47;;;;;;;9.35;8.18;;;24.50;99.90;;;;;;6214742;23;20047;-76
2022/08/25 03:24:13;;;;;;;10.10;7.80;;;24.40;99.90;;;;;;6214019;23;20192;-76
2022/08/25 03:26:54;;;;;;;8.65;7.40;;;24.40;99.90;;;;;;6212981;23;20503;-76
2022/08/25 03:29:29;;;;;;;10.88;8.00;;;24.30;99.90;;;;;;6212519;23;20004;-76
2022/08/25 03:31:59;;;;;;;10.98;8.73;;;24.40;99.90;;;;;;6214275;23;20056;-76
2022/08/25 03:34:27;;;;;;;12.77;8.60;;;24.30;99.90;;;;;;6214584;23;20008;-76
2022/08/25 03:36:55;;;;;;;10.43;7.63;;;24.30;99.90;;;;;;6214878;23;20001;-77
2022/08/25 03:39:23;;;;;;;8.93;7.68;;;24.30;99.90;;;;;;6214180;23;19997;-76
2022/08/25 03:41:50;;;;;;;10.80;8.50;;;24.30;99.90;;;;;;6214205;23;20336;-76
2022/08/25 03:44:17;;;;;;;9.00;7.90;;;24.30;99.90;;;;;;6213857;23;20001;-76
2022/08/25 03:46:45;;;;;;;8.80;7.75;;;24.30;99.90;;;;;;6214764;23;20119;-76
2022/08/25 03:49:22;;;;;;;11.15;8.38;;;24.20;99.90;;;;;;6213918;23;20003;-76
2022/08/25 03:51:50;;;;;;;9.82;8.07;;;24.20;99.90;;;;;;6214487;23;20071;-76
2022/08/25 03:54:19;;;;;;;9.18;8.23;;;24.10;99.90;;;;;;6212265;23;20058;-76
2022/08/25 03:56:45;;;;;;;9.68;8.30;;;24.10;99.90;;;;;;6212492;23;20001;-76
2022/08/25 03:59:11;;;;;;;9.80;8.27;;;24.10;99.90;;;;;;6213404;23;20010;-76
2022/08/25 04:01:39;;;;;;;10.32;8.07;;;24.10;99.90;;;;;;6214267;23;20049;-76
2022/08/25 04:04:07;;;;;;;10.82;7.35;;;24.10;99.90;;;;;;6213759;23;19996;-77
2022/08/25 04:06:33;;;;;;;9.88;7.75;;;24.10;99.90;;;;;;6214312;23;20058;-76
2022/08/25 04:08:59;;;;;;;9.38;7.60;;;24.10;99.90;;;;;;6213709;23;20333;-76
2022/08/25 04:11:26;;;;;;;10.27;7.53;;;24.00;99.90;;;;;;6214237;23;20004;-77
2022/08/25 04:13:55;;;;;;;10.00;8.32;;;24.00;99.90;;;;;;6213321;23;20004;-75
2022/08/25 04:16:26;;;;;;;10.93;8.20;;;24.00;99.90;;;;;;6214233;23;20031;-76
2022/08/25 04:18:53;;;;;;;12.63;8.43;;;24.00;99.90;;;;;;6213190;23;20017;-76
2022/08/25 04:21:20;;;;;;;9.63;8.23;;;24.00;99.90;;;;;;6213879;23;20348;-77
2022/08/25 04:23:47;;;;;;;12.63;8.07;;;24.00;99.90;;;;;;6213907;23;20012;-77
2022/08/25 04:26:35;;;;;;;11.50;8.07;;;24.10;99.90;;;;;;6212462;23;20079;-76
2022/08/25 04:29:04;;;;;;;10.07;7.80;;;24.10;99.90;;;;;;6211640;23;20015;-76
2022/08/25 04:31:30;;;;;;;9.50;8.07;;;24.00;99.90;;;;;;6212386;23;20028;-76
2022/08/25 04:33:57;;;;;;;11.05;8.50;;;24.00;99.90;;;;;;6211706;23;20035;-77
2022/08/25 04:36:23;;;;;;;12.30;7.55;;;24.10;99.90;;;;;;6214079;23;20000;-76
2022/08/25 04:38:49;;;;;;;11.30;8.10;;;24.00;99.90;;;;;;6213168;23;20001;-76
2022/08/25 04:41:19;;;;;;;11.73;8.85;;;24.00;99.90;;;;;;6213721;23;20005;-76
2022/08/25 04:43:45;;;;;;;9.10;8.20;;;24.10;99.90;;;;;;6213016;23;20416;-76
2022/08/25 04:46:14;;;;;;;13.13;8.50;;;24.10;99.90;;;;;;6213935;23;20421;-76
2022/08/25 04:48:40;;;;;;;12.00;8.02;;;24.20;99.90;;;;;;6211671;23;20054;-76
2022/08/25 04:51:08;;;;;;;9.25;7.90;;;24.20;99.90;;;;;;6213728;23;19996;-76
2022/08/25 04:53:35;;;;;;;11.98;8.10;;;24.10;99.90;;;;;;6213294;23;20007;-76
2022/08/25 04:56:01;;;;;;;10.50;7.88;;;24.20;99.90;;;;;;6213989;23;20314;-76
2022/08/25 04:58:27;;;;;;;10.07;8.40;;;24.20;99.90;;;;;;6213074;23;20007;-76
2022/08/25 05:00:59;;;;;;;12.23;8.18;;;24.30;99.90;;;;;;6213750;23;20387;-76
2022/08/25 05:03:26;;;;;;;12.77;7.93;;;24.30;99.90;;;;;;6211594;23;20013;-76
2022/08/25 05:05:51;;;;;;;9.07;7.88;;;24.30;99.90;;;;;;6213782;23;20325;-76
2022/08/25 05:08:17;;;;;;;8.43;7.25;;;24.40;99.90;;;;;;6213210;23;20001;-76
2022/08/25 05:10:43;;;;;;;8.32;7.45;;;24.40;99.90;;;;;;6213604;23;20000;-76
2022/08/25 05:13:08;;;;;;;12.80;7.70;;;24.50;99.90;;;;;;6213044;23;20435;-76
2022/08/25 05:15:49;;;;;;;11.05;8.30;;;24.50;99.90;;;;;;6213747;23;20005;-77
2022/08/25 05:18:16;;;;;;;12.45;8.25;;;24.50;99.90;;;;;;6212685;23;20024;-76
2022/08/25 05:20:42;;;;;;;12.77;8.10;;;24.60;99.90;;;;;;6213610;23;20004;-76
2022/08/25 05:23:08;;;;;;;11.90;8.20;;;24.60;99.90;;;;;;6211617;23;20008;-77
2022/08/25 05:25:33;;;;;;;11.77;8.52;;;24.70;99.90;;;;;;6213257;23;20051;-77
2022/08/25 05:27:59;;;;;;;11.93;8.30;;;24.70;99.90;;;;;;6213019;23;20008;-76
2022/08/25 05:30:25;;;;;;;10.13;7.72;;;24.80;99.90;;;;;;6213166;23;20083;-77
2022/08/25 05:32:51;;;;;;;10.27;8.32;;;24.80;99.90;;;;;;6212784;23;20012;-77
2022/08/25 05:35:18;;;;;;;10.43;7.80;;;24.80;99.90;;;;;;6212177;23;20334;-76
2022/08/25 05:37:44;;;;;;;12.75;7.95;;;24.80;99.90;;;;;;6212930;23;20435;-77
2022/08/25 05:40:10;;;;;;;8.63;7.75;;;24.90;99.90;;;;;;6213310;23;20028;-78
2022/08/25 05:42:36;;;;;;;11.68;8.02;;;25.00;99.90;;;;;;6213019;23;20088;-77
2022/08/25 05:45:05;;;;;;;8.48;7.57;;;25.00;99.90;;;;;;6213062;23;20051;-77
2022/08/25 05:47:31;;;;;;;12.35;7.80;;;25.10;99.90;;;;;;6212714;23;20005;-77
2022/08/25 05:49:57;;;;;;;10.70;8.25;;;25.20;99.90;;;;;;6213064;23;20023;-77
2022/08/25 05:52:26;;;;;;;14.85;7.55;;;25.30;99.90;;;;;;6212898;23;20043;-77
2022/08/25 05:54:51;;;;;;;9.35;7.30;;;25.40;99.90;;;;;;6213357;23;20004;-77
2022/08/25 05:57:17;;;;;;;8.93;7.47;;;25.40;99.90;;;;;;6212609;23;20008;-75
2022/08/25 05:59:43;;;;;;;11.15;7.80;;;25.50;99.90;;;;;;6212713;23;19997;-75
2022/08/25 06:04:53;;;;;;;14.05;7.53;;;25.70;99.90;;;;;;6212846;23;20458;-75
2022/08/25 06:07:19;;;;;;;8.82;7.28;;;25.80;99.90;;;;;;6213059;23;20117;-76
2022/08/25 06:09:47;;;;;;;11.48;7.90;;;25.80;99.90;;;;;;6213112;23;19999;-75
2022/08/25 06:12:14;;;;;;;11.27;7.50;;;25.90;99.90;;;;;;6211386;23;20111;-75
2022/08/25 06:14:40;;;;;;;8.50;7.68;;;26.00;99.90;;;;;;6212459;23;19996;-75
2022/08/25 06:17:06;;;;;;;9.35;7.40;;;26.10;99.90;;;;;;6211237;23;20032;-75
2022/08/25 06:19:32;;;;;;;9.80;7.65;;;26.20;99.90;;;;;;6211419;23;20011;-75
2022/08/25 06:21:57;;;;;;;10.38;7.18;;;26.30;99.90;;;;;;6212915;23;20428;-75
2022/08/25 06:24:26;;;;;;;8.05;7.25;;;26.40;99.90;;;;;;6213235;23;20413;-75
2022/08/25 06:26:52;;;;;;;10.82;7.60;;;26.50;99.90;;;;;;6212845;23;20004;-75
2022/08/25 06:29:18;;;;;;;8.85;6.88;;;26.60;99.90;;;;;;6210394;23;20451;-75
2022/08/25 06:31:45;;;;;;;12.02;7.40;;;26.60;99.90;;;;;;6213238;23;20008;-74
2022/08/25 06:34:11;;;;;;;11.60;7.38;;;26.70;99.90;;;;;;6211216;23;20040;-75
2022/08/25 06:36:37;;;;;;;12.07;7.75;;;26.70;99.90;;;;;;6212890;23;20004;-74
2022/08/25 06:39:03;;;;;;;10.77;7.43;;;26.70;99.90;;;;;;6212421;23;20465;-78
2022/08/25 06:41:29;;;;;;;10.80;6.82;;;26.70;99.90;;;;;;6212717;23;20429;-74
2022/08/25 06:43:54;;;;;;;11.95;8.10;;;26.70;99.90;;;;;;6214073;23;20009;-77
2022/08/25 06:46:25;;;;;;;9.70;6.93;;;26.70;99.90;;;;;;6213839;23;20440;-75
2022/08/25 06:48:51;;;;;;;8.98;6.95;;;26.60;99.90;;;;;;6214567;23;20079;-75
2022/08/25 06:51:18;;;;;;;12.02;7.85;;;26.60;99.90;;;;;;6214915;23;20367;-74
2022/08/25 06:53:46;;;;;;;9.48;7.55;;;26.60;99.90;;;;;;6212993;23;20570;-74
2022/08/25 06:56:13;;;;;;;9.43;7.25;;;26.60;99.90;;;;;;6213548;23;20029;-75
2022/08/25 06:58:38;;;;;;;8.05;7.22;;;26.60;99.90;;;;;;6214611;23;20328;-75
2022/08/25 07:01:15;;;;;;;8.38;7.07;;;26.70;99.90;;;;;;6213270;23;20011;-75
2022/08/25 07:03:42;;;;;;;10.75;7.18;;;26.70;99.70;;;;;;6212891;23;20013;-75
2022/08/25 07:06:08;;;;;;;10.18;7.13;;;26.80;99.70;;;;;;6214633;23;20308;-74
2022/08/25 07:08:37;;;;;;;9.73;7.05;;;26.80;99.60;;;;;;6214121;23;20079;-74
2022/08/25 07:11:07;;;;;;;9.63;7.20;;;26.90;99.50;;;;;;6214523;23;19997;-74
2022/08/25 07:13:34;;;;;;;12.93;7.40;;;26.90;99.90;;;;;;6213960;23;19993;-74
2022/08/25 07:15:59;;;;;;;8.38;6.47;;;26.90;99.60;;;;;;6215127;23;20126;-75
2022/08/25 07:18:25;;;;;;;8.88;7.00;;;27.00;99.30;;;;;;6212515;23;20056;-75
2022/08/25 07:20:52;;;;;;;10.07;6.80;;;27.00;99.30;;;;;;6214503;23;20008;-74
2022/08/25 07:23:19;;;;;;;11.10;6.90;;;27.10;99.20;;;;;;6214344;23;20104;-76
2022/08/25 07:25:46;;;;;;;11.60;7.40;;;27.10;99.00;;;;;;6214471;23;20074;-74
2022/08/25 07:28:13;;;;;;;16.08;7.88;;;27.10;98.60;;;;;;6214076;23;20076;-74
2022/08/25 07:30:40;;;;;;;12.77;7.35;;;27.20;98.60;;;;;;6214528;23;20424;-76
2022/08/25 07:33:05;;;;;;;13.85;6.63;;;27.30;98.20;;;;;;6212537;23;20087;-77
2022/08/25 07:35:31;;;;;;;12.27;7.68;;;27.30;98.20;;;;;;6214506;23;20517;-74
2022/08/25 07:37:59;;;;;;;10.90;7.32;;;27.30;98.10;;;;;;6214264;23;20004;-74
2022/08/25 07:40:30;;;;;;;12.65;7.65;;;27.30;97.60;;;;;;6214494;23;19997;-77
2022/08/25 07:42:58;;;;;;;12.95;7.22;;;27.30;97.30;;;;;;6214095;23;20352;-77
2022/08/25 07:45:30;;;;;;;13.25;7.47;;;27.30;97.50;;;;;;6212243;23;20058;-74
2022/08/25 07:48:08;;;;;;;12.32;7.40;;;27.30;97.50;;;;;;6213858;23;20005;-74
2022/08/25 07:50:37;;;;;;;12.88;7.22;;;27.30;98.00;;;;;;6214430;23;20076;-75
2022/08/25 07:53:04;;;;;;;10.18;7.25;;;27.40;97.40;;;;;;6212170;23;20039;-74
2022/08/25 07:55:30;;;;;;;9.80;6.88;;;27.40;97.40;;;;;;6213887;23;19997;-77
2022/08/25 07:57:58;;;;;;;14.85;7.32;;;27.30;97.40;;;;;;6213859;23;20004;-77
2022/08/25 08:00:27;;;;;;;8.55;6.70;;;27.30;97.60;;;;;;6212537;23;20004;-76
2022/08/25 08:02:52;;;;;;;14.60;7.15;;;27.30;98.10;;;;;;6212209;23;20040;-76
2022/08/25 08:05:18;;;;;;;10.38;7.20;;;27.40;97.90;;;;;;6212703;23;20490;-76
2022/08/25 08:07:44;;;;;;;11.57;7.30;;;27.40;98.30;;;;;;6213932;23;20028;-76
2022/08/25 08:10:13;;;;;;;11.38;7.18;;;27.40;98.00;;;;;;6214373;23;20051;-77
2022/08/25 08:12:38;;;;;;;11.27;7.10;;;27.50;97.40;;;;;;6213805;23;20008;-76
2022/08/25 08:15:05;;;;;;;9.98;7.30;;;27.50;97.00;;;;;;6213958;23;20001;-76
2022/08/25 08:17:31;;;;;;;15.15;7.45;;;27.50;96.90;;;;;;6211793;23;20333;-76
2022/08/25 08:19:57;;;;;;;13.43;7.47;;;27.50;96.90;;;;;;6212597;23;20000;-76
2022/08/25 08:22:23;;;;;;;15.00;8.10;;;27.50;96.50;;;;;;6213609;23;20318;-76
2022/08/25 08:24:49;;;;;;;11.75;7.47;;;27.50;96.50;;;;;;6212473;23;20007;-76
2022/08/25 08:27:15;;;;;;;15.60;6.95;;;27.60;96.90;;;;;;6213781;23;20009;-76
2022/08/25 08:29:41;;;;;;;11.35;7.45;;;27.60;96.90;;;;;;6213520;23;19997;-75
2022/08/25 08:32:12;;;;;;;15.85;7.97;;;27.70;96.50;;;;;;6213529;23;20411;-75
2022/08/25 08:34:39;;;;;;;12.43;7.05;;;27.70;96.30;;;;;;6214097;23;20008;-76
2022/08/25 08:37:06;;;;;;;9.68;7.20;;;27.80;96.20;;;;;;6212143;23;20012;-76
2022/08/25 08:39:32;;;;;;;11.57;7.05;;;27.80;96.00;;;;;;6213687;23;20001;-76
2022/08/25 08:42:15;;;;;;;10.18;7.13;;;27.80;95.90;;;;;;6212125;23;20079;-76
2022/08/25 08:44:49;;;;;;;14.18;7.18;;;27.90;96.10;;;;;;6213826;23;20318;-76
2022/08/25 08:47:38;;;;;;;15.82;7.13;;;27.90;95.90;;;;;;6213540;23;20322;-76
2022/08/25 08:50:28;;;;;;;19.92;6.97;;;27.90;95.80;;;;;;6213718;23;20000;-76
2022/08/25 08:53:12;;;;;;;10.15;7.10;;;28.00;95.80;;;;;;6213314;23;20001;-76
2022/08/25 08:55:44;;;;;;;14.48;7.90;;;28.00;95.70;;;;;;6212151;23;20008;-76
2022/08/25 08:58:34;;;;;;;14.25;6.85;;;28.10;95.90;;;;;;6213060;23;20008;-76
2022/08/25 09:01:00;;;;;;;9.15;6.90;;;28.10;95.80;;;;;;6212764;23;20439;-76
2022/08/25 09:03:41;;;;;;;9.63;6.57;;;28.20;95.80;;;;;;6212956;23;20088;-76
2022/08/25 09:06:32;;;;;;;11.13;6.85;;;28.30;95.50;;;;;;6211967;23;20001;-76
2022/08/25 09:09:02;;;;;;;9.98;6.75;;;28.30;95.30;;;;;;6194202;23;20005;-76
2022/08/25 09:11:43;;;;;;;10.60;6.75;;;28.40;95.30;;;;;;6213488;23;20027;-76
2022/08/25 09:14:24;;;;;;;11.00;6.78;;;28.40;95.30;;;;;;6213030;23;20040;-76
2022/08/25 09:17:05;;;;;;;15.38;7.22;;;28.50;95.10;;;;;;6213210;23;20343;-76
2022/08/25 09:19:39;;;;;;;7.40;5.93;;;28.50;94.90;;;;;;6213391;23;20455;-76
2022/08/25 09:22:30;;;;;;;11.68;7.03;;;28.50;94.90;;;;;;6212823;23;20012;-76
2022/08/25 09:25:17;;;;;;;9.30;6.45;;;28.50;95.00;;;;;;6212027;23;20009;-76
2022/08/25 09:27:57;;;;;;;10.02;6.25;;;28.60;94.30;;;;;;6213125;23;20000;-76
2022/08/25 09:30:23;;;;;;;11.85;6.78;;;28.70;94.40;;;;;;6212983;23;20005;-75
2022/08/25 09:32:58;;;;;;;9.10;6.25;;;28.80;94.60;;;;;;6211662;23;20004;-76
2022/08/25 09:35:28;;;;;;;12.70;6.90;;;28.90;94.60;;;;;;6211836;23;20005;-76
2022/08/25 09:38:03;;;;;;;12.82;6.57;;;29.00;94.60;;;;;;6211298;23;20031;-76
2022/08/25 09:40:35;;;;;;;10.50;6.95;;;29.00;94.40;;;;;;6213104;23;20454;-76
2022/08/25 09:43:04;;;;;;;10.88;6.50;;;29.10;94.40;;;;;;6212646;23;20039;-76
2022/08/25 09:45:42;;;;;;;12.85;7.28;;;29.20;94.40;;;;;;6212967;23;19997;-76
2022/08/25 09:48:22;;;;;;;9.75;6.45;;;29.20;94.20;;;;;;6212891;23;20439;-75
2022/08/25 09:50:51;;;;;;;9.15;6.13;;;29.20;93.90;;;;;;6213058;23;20444;-76
2022/08/25 09:53:18;;;;;;;11.00;6.03;;;29.20;93.90;;;;;;6212735;23;20439;-76
2022/08/25 09:55:51;;;;;;;13.95;5.95;;;29.20;93.70;;;;;;6213331;23;20075;-76
2022/08/25 09:58:20;;;;;;;8.90;6.55;;;29.30;93.60;;;;;;6212625;23;20004;-76
2022/08/25 10:01:00;;;;;;;10.52;6.22;;;29.30;93.40;;;;;;6213095;23;20055;-75
2022/08/25 10:03:26;;;;;;;11.75;6.35;;;29.40;93.90;;;;;;6212355;23;20435;-75
2022/08/25 10:05:57;;;;;;;9.32;6.55;;;29.50;93.70;;;;;;6211017;23;20428;-76
2022/08/25 10:08:39;;;;;;;10.43;6.30;;;29.50;93.50;;;;;;6212308;23;20005;-75
2022/08/25 10:11:13;;;;;;;13.75;7.00;;;29.50;93.40;;;;;;6211572;23;20039;-76
2022/08/25 10:13:43;;;;;;;8.82;6.32;;;29.50;93.00;;;;;;6212333;23;20004;-76
2022/08/25 10:16:33;;;;;;;14.32;7.25;;;29.60;93.30;;;;;;6212879;23;20028;-76
2022/08/25 10:19:12;;;;;;;12.77;6.68;;;29.60;93.10;;;;;;6212144;23;20016;-76
2022/08/25 10:21:41;;;;;;;10.98;7.07;;;29.60;92.90;;;;;;6211561;23;20009;-76
2022/08/25 10:24:10;;;;;;;13.73;6.50;;;29.60;92.70;;;;;;6212015;23;20005;-79
2022/08/25 10:26:47;;;;;;;10.32;6.38;;;29.60;92.90;;;;;;6213241;23;20008;-77
2022/08/25 10:29:34;;;;;;;13.98;6.90;;;29.60;92.60;;;;;;6212615;23;20035;-78
2022/08/25 10:32:29;;;;;;;13.35;7.40;;;29.60;92.60;;;;;;6212805;23;20000;-77
2022/08/25 10:34:58;;;;;;;10.50;6.72;;;29.60;92.60;;;;;;6197781;23;20092;-77
2022/08/25 10:37:43;;;;;;;13.20;6.30;;;29.60;92.50;;;;;;6212564;23;20007;-76
2022/08/25 10:40:27;;;;;;;17.75;6.93;;;29.60;92.80;;;;;;6212664;23;19997;-76
2022/08/25 10:43:01;;;;;;;12.13;6.93;;;29.80;92.60;;;;;;6210819;23;20013;-75
2022/08/25 10:45:44;;;;;;;14.02;6.82;;;29.80;92.40;;;;;;6211241;23;20001;-76
2022/08/25 10:48:17;;;;;;;9.35;5.75;;;29.90;92.30;;;;;;6213003;23;20001;-78
2022/08/25 10:51:02;;;;;;;9.93;5.70;;;30.00;92.00;;;;;;6213292;23;20392;-78
2022/08/25 10:53:41;;;;;;;14.13;6.90;;;30.00;91.60;;;;;;6212618;23;20004;-77
2022/08/25 10:56:25;;;;;;;9.23;6.20;;;30.00;91.30;;;;;;6213326;23;20332;-76
2022/08/25 10:59:09;;;;;;;12.43;6.78;;;30.00;91.80;;;;;;6210698;23;20007;-77
2022/08/25 11:01:38;;;;;;;11.38;6.55;;;30.10;92.20;;;;;;6211583;23;20026;-77
2022/08/25 11:04:16;;;;;;;10.55;6.22;;;30.20;91.30;;;;;;6210976;23;20040;-77
2022/08/25 11:06:46;;;;;;;15.18;5.80;;;30.30;90.60;;;;;;6213191;23;20463;-76
2022/08/25 11:09:18;;;;;;;8.32;5.47;;;30.40;90.40;;;;;;6212520;23;20000;-77
2022/08/25 11:12:01;;;;;;;10.80;6.63;;;30.40;90.60;;;;;;6212983;23;20413;-77
2022/08/25 11:14:33;;;;;;;12.73;6.53;;;30.50;90.80;;;;;;6211054;23;20079;-77
2022/08/25 11:17:09;;;;;;;9.52;5.90;;;30.60;90.70;;;;;;6212725;23;20019;-76
2022/08/25 11:19:39;;;;;;;10.38;5.60;;;30.70;90.60;;;;;;6212743;23;20000;-76
2022/08/25 11:22:13;;;;;;;9.57;5.82;;;30.90;90.50;;;;;;6210543;23;20616;-76
2022/08/25 11:24:54;;;;;;;15.70;5.50;;;31.00;90.40;;;;;;6212561;23;20007;-76
2022/08/25 11:27:24;;;;;;;6.72;5.53;;;31.10;90.80;;;;;;6212736;23;20079;-77
2022/08/25 11:30:11;;;;;;;11.50;6.50;;;31.20;89.30;;;;;;6212574;23;20004;-76
2022/08/25 11:32:38;;;;;;;7.50;5.35;;;31.20;89.50;;;;;;6214437;23;20455;-76
2022/08/25 11:35:10;;;;;;;7.30;5.55;;;31.30;88.30;;;;;;6214869;23;20016;-76
2022/08/25 11:37:59;;;;;;;9.02;5.18;;;31.40;88.90;;;;;;6214350;23;20004;-76
2022/08/25 11:40:37;;;;;;;11.25;5.70;;;31.40;88.50;;;;;;6209377;23;20523;-76
2022/08/25 11:43:31;;;;;;;10.60;5.15;;;31.50;89.30;;;;;;6208845;23;20051;-76
2022/08/25 11:46:07;;;;;;;10.98;5.50;;;31.60;87.90;;;;;;6210568;23;20375;-76
2022/08/25 11:49:19;;;;;;;9.93;4.95;;;31.60;86.90;;;;;;6211440;23;20035;-76
2022/08/25 11:51:47;;;;;;;11.18;4.97;;;31.70;86.80;;;;;;6165424;23;20005;-76
2022/08/25 11:54:34;;;;;;;9.75;5.10;;;31.90;85.50;;;;;;6207944;23;20028;-75
2022/08/25 11:57:20;;;;;;;10.30;5.00;;;32.00;86.70;;;;;;6210471;23;20008;-76
2022/08/25 11:59:52;;;;;;;10.20;4.95;;;32.10;85.00;;;;;;6208658;23;20032;-76
2022/08/25 12:02:30;;;;;;;11.48;5.13;;;32.10;85.60;;;;;;6209843;23;20016;-76
2022/08/25 12:04:56;;;;;;;11.25;5.53;;;32.20;85.50;;;;;;6210694;23;20027;-76
2022/08/25 12:07:25;;;;;;;9.25;5.40;;;32.30;85.60;;;;;;6210225;23;20011;-77
2022/08/25 12:09:54;;;;;;;12.90;5.93;;;32.40;85.80;;;;;;6210610;23;20007;-77
2022/08/25 12:12:42;;;;;;;13.50;5.43;;;33.00;84.60;;;;;;6209853;23;20011;-76
2022/08/25 12:15:22;;;;;;;9.20;5.00;;;34.70;80.90;;;;;;6209683;23;20111;-76
2022/08/25 12:18:13;;;;;;;8.15;5.22;;;37.00;76.70;;;;;;6209911;23;20082;-77
2022/08/25 12:20:54;;;;;;;12.57;5.00;;;39.20;73.50;;;;;;6210567;23;20516;-76
2022/08/25 12:23:38;;;;;;;10.52;5.25;;;41.10;69.40;;;;;;6209913;23;20044;-77
2022/08/25 12:26:25;;;;;;;12.20;5.05;;;42.50;65.60;;;;;;6210417;23;20004;-77
2022/08/25 12:29:20;;;;;;;8.10;4.32;;;43.60;63.20;;;;;;6209617;23;20005;-75
2022/08/25 12:32:06;;;;;;;8.82;4.88;;;45.00;61.70;;;;;;6102982;23;20435;-77
2022/08/25 12:34:49;;;;;;;9.23;4.80;;;46.40;57.70;;;;;;6210354;23;20676;-74
2022/08/25 12:37:20;;;;;;;7.97;4.45;;;47.40;56.60;;;;;;6208504;23;20325;-77
2022/08/25 12:39:49;;;;;;;11.90;4.85;;;48.50;55.00;;;;;;6209838;23;20551;-77
2022/08/25 12:42:35;;;;;;;9.90;5.07;;;49.30;52.90;;;;;;6209171;23;20016;-77
2022/08/25 12:45:24;;;;;;;7.00;4.43;;;49.70;52.20;;;;;;6210029;23;20005;-78
2022/08/25 12:47:53;;;;;;;10.05;4.35;;;50.10;51.80;;;;;;6210167;23;20086;-76
2022/08/25 12:50:40;;;;;;;8.15;4.60;;;50.70;51.10;;;;;;6210057;23;20007;-76
2022/08/25 12:53:29;;;;;;;5.85;4.13;;;51.10;48.90;;;;;;6209785;23;20012;-78
2022/08/25 12:56:15;;;;;;;8.57;4.60;;;51.60;49.40;;;;;;6210144;23;20432;-76
2022/08/25 12:59:00;;;;;;;9.88;5.10;;;52.40;47.80;;;;;;6209136;23;20455;-76
2022/08/25 13:01:53;;;;;;;7.75;4.70;;;52.90;47.30;;;;;;6210234;23;20005;-76
2022/08/25 13:04:30;;;;;;;8.43;5.00;;;53.20;46.40;;;;;;6209816;23;20019;-76